createdAt,value
2022-10-10T00:00:06.525Z,100378.72
2022-10-10T00:02:32.947Z,100372.72
2022-10-10T00:04:59.307Z,100370.13
2022-10-10T00:07:25.735Z,100363.94
2022-10-10T00:09:52.174Z,100365.72
2022-10-10T00:12:18.539Z,100369.28
2022-10-10T00:14:44.906Z,100365.78
2022-10-10T00:17:11.343Z,100369.31
2022-10-10T00:19:37.756Z,100370.22
2022-10-10T00:22:04.133Z,100371.91
2022-10-10T00:24:30.457Z,100369.44
2022-10-10T00:26:56.816Z,100368.56
2022-10-10T00:29:23.245Z,100360.56
2022-10-10T00:31:49.587Z,100368.47
2022-10-10T00:34:15.985Z,100362.25
2022-10-10T00:36:42.342Z,100359.88
2022-10-10T00:39:08.677Z,100362.47
2022-10-10T00:41:35.071Z,100367.66
2022-10-10T00:44:10.621Z,100367.63
2022-10-10T00:46:37.404Z,100367.66
2022-10-10T00:49:07.019Z,100364.19
2022-10-10T00:51:33.752Z,100356.38
2022-10-10T00:54:03.976Z,100358.16
2022-10-10T00:56:39.175Z,100361.66
2022-10-10T00:59:08.546Z,100363.31
2022-10-10T01:01:34.940Z,100358.16
2022-10-10T01:04:02.595Z,100352.06
2022-10-10T01:06:29.523Z,100350.28
2022-10-10T01:08:56.978Z,100347.53
2022-10-10T01:11:46.219Z,100342.25
2022-10-10T01:14:18.456Z,100344.13
2022-10-10T01:16:56.172Z,100339.78
2022-10-10T01:20:19.352Z,100333.63
2022-10-10T01:23:19.421Z,100338.06
2022-10-10T01:25:58.821Z,100345.91
2022-10-10T01:28:40.103Z,100343.34
2022-10-10T01:31:10.321Z,100345.16
2022-10-10T01:33:44.987Z,100337.25
2022-10-10T01:36:27.007Z,100332.78
2022-10-10T01:39:00.110Z,100326.59
2022-10-10T01:41:40.383Z,100324.84
2022-10-10T01:44:06.799Z,100322.13
2022-10-10T01:46:33.206Z,100326.53
2022-10-10T01:49:01.018Z,100321.22
2022-10-10T01:51:27.278Z,100328.22
2022-10-10T01:54:12.883Z,100323.03
2022-10-10T01:56:46.956Z,100312.53
2022-10-10T01:59:38.229Z,100309.97
2022-10-10T02:02:15.796Z,100311.75
2022-10-10T02:04:52.881Z,100307.38
2022-10-10T02:07:28.319Z,100312.56
2022-10-10T02:09:55.678Z,100313.47
2022-10-10T02:12:23.335Z,100309.06
2022-10-10T02:14:54.090Z,100317.84
2022-10-10T02:17:22.800Z,100312.47
2022-10-10T02:19:53.927Z,100316.03
2022-10-10T02:22:23.541Z,100316.06
2022-10-10T02:24:52.239Z,100309.06
2022-10-10T02:27:28.016Z,100314.34
2022-10-10T02:29:58.786Z,100304.72
2022-10-10T02:32:47.610Z,100294.22
2022-10-10T02:35:22.907Z,100303.84
2022-10-10T02:37:51.568Z,100307.34
2022-10-10T02:40:22.337Z,100306.50
2022-10-10T02:42:51.117Z,100307.41
2022-10-10T02:45:19.767Z,100309.06
2022-10-10T02:47:46.244Z,100314.25
2022-10-10T02:50:12.754Z,100316.97
2022-10-10T02:52:39.308Z,100313.50
2022-10-10T02:55:06.203Z,100315.28
2022-10-10T02:57:32.634Z,100307.41
2022-10-10T02:59:59.067Z,100297.00
2022-10-10T03:02:25.473Z,100301.34
2022-10-10T03:04:51.812Z,100298.63
2022-10-10T03:07:18.152Z,100308.44
2022-10-10T03:09:44.617Z,100304.00
2022-10-10T03:12:10.963Z,100303.22
2022-10-10T03:14:37.332Z,100305.00
2022-10-10T03:17:03.709Z,100312.88
2022-10-10T03:19:30.065Z,100310.16
2022-10-10T03:21:56.432Z,100308.47
2022-10-10T03:24:22.804Z,100300.53
2022-10-10T03:26:49.188Z,100303.16
2022-10-10T03:29:15.568Z,100308.50
2022-10-10T03:31:41.963Z,100307.59
2022-10-10T03:34:08.385Z,100303.22
2022-10-10T03:36:34.831Z,100303.13
2022-10-10T03:39:01.176Z,100307.53
2022-10-10T03:41:27.703Z,100308.41
2022-10-10T03:43:54.118Z,100312.69
2022-10-10T03:46:20.906Z,100311.03
2022-10-10T03:48:47.592Z,100315.53
2022-10-10T03:51:14.018Z,100305.91
2022-10-10T03:53:40.520Z,100308.50
2022-10-10T03:56:08.003Z,100298.88
2022-10-10T03:58:34.699Z,100304.19
2022-10-10T04:01:03.556Z,100300.63
2022-10-10T04:03:30.933Z,100305.84
2022-10-10T04:05:57.485Z,100306.78
2022-10-10T04:08:24.650Z,100306.84
2022-10-10T04:10:52.903Z,100306.72
2022-10-10T04:13:21.052Z,100306.78
2022-10-10T04:15:55.343Z,100314.75
2022-10-10T04:18:22.558Z,100309.53
2022-10-10T04:20:49.022Z,100317.41
2022-10-10T04:23:15.385Z,100315.63
2022-10-10T04:25:41.913Z,100311.19
2022-10-10T04:28:11.695Z,100315.66
2022-10-10T04:30:38.156Z,100311.31
2022-10-10T04:33:04.519Z,100314.88
2022-10-10T04:35:30.849Z,100316.59
2022-10-10T04:37:57.208Z,100318.34
2022-10-10T04:40:26.609Z,100320.97
2022-10-10T04:42:54.477Z,100325.31
2022-10-10T04:45:21.029Z,100316.63
2022-10-10T04:47:47.381Z,100320.13
2022-10-10T04:50:13.789Z,100318.34
2022-10-10T04:52:40.169Z,100318.34
2022-10-10T04:55:06.709Z,100307.84
2022-10-10T04:57:33.155Z,100315.72
2022-10-10T04:59:59.651Z,100311.22
2022-10-10T05:02:26.012Z,100315.59
2022-10-10T05:04:52.364Z,100310.34
2022-10-10T05:07:18.790Z,100312.97
2022-10-10T05:09:45.124Z,100312.94
2022-10-10T05:12:11.521Z,100306.72
2022-10-10T05:14:38.037Z,100318.13
2022-10-10T05:17:04.566Z,100308.16
2022-10-10T05:19:30.926Z,100301.25
2022-10-10T05:21:57.377Z,100302.25
2022-10-10T05:24:23.983Z,100306.69
2022-10-10T05:26:50.469Z,100312.91
2022-10-10T05:29:16.864Z,100315.50
2022-10-10T05:31:43.261Z,100312.00
2022-10-10T05:34:13.747Z,100311.13
2022-10-10T05:36:43.412Z,100315.53
2022-10-10T05:39:10.039Z,100312.06
2022-10-10T05:41:36.684Z,100320.78
2022-10-10T05:44:03.116Z,100310.31
2022-10-10T05:46:29.603Z,100315.53
2022-10-10T05:48:56.677Z,100324.28
2022-10-10T05:51:23.371Z,100323.47
2022-10-10T05:53:49.796Z,100328.66
2022-10-10T05:56:17.132Z,100328.75
2022-10-10T05:58:46.509Z,100333.97
2022-10-10T06:01:12.904Z,100323.31
2022-10-10T06:03:39.287Z,100336.47
2022-10-10T06:06:07.077Z,100323.34
2022-10-10T06:08:33.768Z,100324.09
2022-10-10T06:11:07.897Z,100322.28
2022-10-10T06:13:34.837Z,100321.38
2022-10-10T06:16:01.362Z,100324.97
2022-10-10T06:18:27.771Z,100332.88
2022-10-10T06:20:54.241Z,100331.97
2022-10-10T06:23:20.715Z,100339.84
2022-10-10T06:25:47.271Z,100343.28
2022-10-10T06:28:13.665Z,100346.84
2022-10-10T06:30:42.750Z,100345.88
2022-10-10T06:33:10.040Z,100356.28
2022-10-10T06:35:41.700Z,100357.09
2022-10-10T06:38:08.772Z,100350.78
2022-10-10T06:40:35.345Z,100359.56
2022-10-10T06:43:01.848Z,100365.47
2022-10-10T06:45:28.202Z,100364.75
2022-10-10T06:47:55.466Z,100367.25
2022-10-10T06:50:22.148Z,100369.84
2022-10-10T06:52:48.923Z,100377.66
2022-10-10T06:55:15.677Z,100377.63
2022-10-10T06:57:42.006Z,100374.88
2022-10-10T07:00:09.319Z,100387.00
2022-10-10T07:02:40.565Z,100388.69
2022-10-10T07:05:09.431Z,100395.63
2022-10-10T07:07:35.771Z,100393.00
2022-10-10T07:10:02.153Z,100389.47
2022-10-10T07:12:30.363Z,100384.28
2022-10-10T07:14:58.296Z,100375.53
2022-10-10T07:17:24.773Z,100382.47
2022-10-10T07:19:51.180Z,100384.13
2022-10-10T07:22:17.915Z,100379.72
2022-10-10T07:24:44.267Z,100373.25
2022-10-10T07:27:10.682Z,100382.75
2022-10-10T07:29:37.242Z,100384.34
2022-10-10T07:32:03.894Z,100378.13
2022-10-10T07:34:30.243Z,100385.81
2022-10-10T07:36:56.658Z,100386.56
2022-10-10T07:39:24.411Z,100383.78
2022-10-10T07:41:51.917Z,100377.47
2022-10-10T07:44:19.511Z,100380.88
2022-10-10T07:46:47.192Z,100375.50
2022-10-10T07:49:13.571Z,100378.25
2022-10-10T07:51:39.919Z,100387.81
2022-10-10T07:54:06.349Z,100392.28
2022-10-10T07:56:33.266Z,100385.78
2022-10-10T07:59:00.801Z,100386.41
2022-10-10T08:01:27.262Z,100379.63
2022-10-10T08:03:56.417Z,100390.00
2022-10-10T08:06:23.277Z,100395.72
2022-10-10T08:08:51.954Z,100402.91
2022-10-10T08:11:21.133Z,100391.22
2022-10-10T08:13:47.960Z,100385.78
2022-10-10T08:16:14.751Z,100392.75
2022-10-10T08:18:41.210Z,100384.94
2022-10-10T08:21:11.084Z,100367.84
2022-10-10T08:23:37.601Z,100376.81
2022-10-10T08:26:09.599Z,100376.44
2022-10-10T08:28:38.051Z,100374.38
2022-10-10T08:31:09.532Z,100382.09
2022-10-10T08:33:36.739Z,100374.78
2022-10-10T08:36:08.662Z,100375.69
2022-10-10T08:38:36.088Z,100380.88
2022-10-10T08:41:10.147Z,100373.44
2022-10-10T08:43:47.249Z,100377.78
2022-10-10T08:46:39.582Z,100370.00
2022-10-10T08:49:32.189Z,100371.59
2022-10-10T08:52:03.626Z,100375.28
2022-10-10T08:54:33.610Z,100368.56
2022-10-10T08:57:04.315Z,100371.66
2022-10-10T08:59:35.488Z,100373.16
2022-10-10T09:02:43.555Z,100358.94
2022-10-10T09:05:23.068Z,100357.47
2022-10-10T09:07:56.569Z,100363.16
2022-10-10T09:11:01.505Z,100361.50
2022-10-10T09:13:36.379Z,100371.72
2022-10-10T09:16:40.097Z,100372.78
2022-10-10T09:19:18.178Z,100362.91
2022-10-10T09:21:45.871Z,100369.50
2022-10-10T09:24:20.172Z,100361.22
2022-10-10T09:26:52.501Z,100366.28
2022-10-10T09:29:47.132Z,100357.47
2022-10-10T09:32:30.440Z,100363.69
2022-10-10T09:35:16.588Z,100346.50
2022-10-10T09:37:47.704Z,100342.25
2022-10-10T09:40:22.315Z,100346.47
2022-10-10T09:42:48.662Z,100340.25
2022-10-10T09:45:19.467Z,100342.00
2022-10-10T09:47:50.569Z,100334.41
2022-10-10T09:50:17.869Z,100331.28
2022-10-10T09:52:45.813Z,100335.13
2022-10-10T09:55:20.256Z,100340.75
2022-10-10T09:57:47.967Z,100339.75
2022-10-10T10:00:20.479Z,100337.47
2022-10-10T10:03:04.185Z,100327.72
2022-10-10T10:05:30.651Z,100335.88
2022-10-10T10:07:58.287Z,100336.88
2022-10-10T10:10:27.111Z,100336.78
2022-10-10T10:12:55.151Z,100340.88
2022-10-10T10:15:30.578Z,100333.25
2022-10-10T10:18:20.692Z,100329.06
2022-10-10T10:20:50.322Z,100334.78
2022-10-10T10:23:32.179Z,100338.66
2022-10-10T10:26:22.816Z,100335.28
2022-10-10T10:28:50.472Z,100344.81
2022-10-10T10:31:27.894Z,100333.09
2022-10-10T10:34:16.360Z,100330.66
2022-10-10T10:37:05.015Z,100336.53
2022-10-10T10:39:52.017Z,100333.03
2022-10-10T10:42:37.102Z,100343.47
2022-10-10T10:45:17.355Z,100346.13
2022-10-10T10:48:04.151Z,100338.25
2022-10-10T10:50:37.566Z,100339.28
2022-10-10T10:53:15.826Z,100346.59
2022-10-10T10:55:51.191Z,100348.31
2022-10-10T11:01:57.685Z,100340.66
2022-10-10T11:05:20.452Z,100346.16
2022-10-10T11:08:26.107Z,100336.28
2022-10-10T11:11:33.611Z,100336.81
2022-10-10T11:14:09.640Z,100333.78
2022-10-10T11:16:48.420Z,100336.56
2022-10-10T11:19:26.453Z,100336.84
2022-10-10T11:21:56.007Z,100334.22
2022-10-10T11:24:36.590Z,100332.09
2022-10-10T11:27:09.608Z,100329.03
2022-10-10T11:29:58.926Z,100320.94
2022-10-10T11:32:43.027Z,100319.97
2022-10-10T11:35:16.753Z,100326.50
2022-10-10T11:37:49.196Z,100316.38
2022-10-10T11:40:59.997Z,100315.13
2022-10-10T11:43:51.410Z,100309.19
2022-10-10T11:46:50.549Z,100312.94
2022-10-10T11:49:24.990Z,100305.88
2022-10-10T11:52:04.904Z,100316.09
2022-10-10T11:54:55.286Z,100306.94
2022-10-10T11:57:36.035Z,100309.06
2022-10-10T12:00:07.223Z,100303.19
2022-10-10T12:02:36.816Z,100303.31
2022-10-10T12:05:08.003Z,100303.16
2022-10-10T12:07:43.497Z,100303.06
2022-10-10T12:10:26.620Z,100300.09
2022-10-10T12:12:56.155Z,100301.69
2022-10-10T12:15:37.233Z,100299.09
2022-10-10T12:18:06.751Z,100299.00
2022-10-10T12:20:35.820Z,100298.63
2022-10-10T12:23:13.964Z,100292.75
2022-10-10T12:25:46.122Z,100285.31
2022-10-10T12:28:12.447Z,100285.31
2022-10-10T12:30:58.585Z,100281.69
2022-10-10T12:33:28.317Z,100284.38
2022-10-10T12:35:54.769Z,100282.34
2022-10-10T12:38:25.720Z,100274.88
2022-10-10T12:40:58.017Z,100281.38
2022-10-10T12:43:37.022Z,100274.69
2022-10-10T12:46:23.925Z,100269.72
2022-10-10T12:49:13.924Z,100263.16
2022-10-10T12:51:42.342Z,100260.66
2022-10-10T12:54:23.778Z,100263.97
2022-10-10T12:56:57.817Z,100262.72
2022-10-10T12:59:25.118Z,100266.09
2022-10-10T13:02:02.375Z,100259.44
2022-10-10T13:04:28.964Z,100257.50
2022-10-10T13:06:59.822Z,100258.94
2022-10-10T13:09:35.164Z,100256.50
2022-10-10T13:12:05.134Z,100250.19
2022-10-10T13:14:44.551Z,100252.88
2022-10-10T13:17:26.260Z,100255.50
2022-10-10T13:19:54.069Z,100252.94
2022-10-10T13:22:21.348Z,100252.28
2022-10-10T13:24:49.082Z,100251.34
2022-10-10T13:27:24.957Z,100250.25
2022-10-10T13:29:53.143Z,100252.00
2022-10-10T13:32:37.532Z,100253.69
2022-10-10T13:35:14.791Z,100244.31
2022-10-10T13:37:42.764Z,100257.28
2022-10-10T13:40:19.578Z,100253.31
2022-10-10T13:42:48.144Z,100237.66
2022-10-10T13:45:29.196Z,100244.66
2022-10-10T13:48:11.683Z,100247.69
2022-10-10T13:50:44.199Z,100248.56
2022-10-10T13:53:26.598Z,100243.91
2022-10-10T13:55:59.415Z,100237.97
2022-10-10T13:58:27.646Z,100239.59
2022-10-10T14:00:56.815Z,100245.09
2022-10-10T14:03:23.577Z,100230.38
2022-10-10T14:05:50.161Z,100238.91
2022-10-10T14:08:19.383Z,100239.63
2022-10-10T14:11:07.668Z,100257.88
2022-10-10T14:13:38.690Z,100244.47
2022-10-10T14:16:17.694Z,100248.97
2022-10-10T14:18:44.903Z,100238.94
2022-10-10T14:21:11.664Z,100243.91
2022-10-10T14:23:38.929Z,100237.31
2022-10-10T14:26:07.890Z,100231.81
2022-10-10T14:28:37.392Z,100230.66
2022-10-10T14:31:04.452Z,100239.41
2022-10-10T14:33:31.452Z,100236.56
2022-10-10T14:35:59.551Z,100228.00
2022-10-10T14:38:26.803Z,100239.53
2022-10-10T14:40:54.489Z,100234.97
2022-10-10T14:43:22.506Z,100230.19
2022-10-10T14:45:53.452Z,100234.97
2022-10-10T14:48:20.197Z,100234.28
2022-10-10T14:50:49.166Z,100231.91
2022-10-10T14:53:16.323Z,100232.38
2022-10-10T14:55:45.949Z,100239.09
2022-10-10T14:58:18.106Z,100238.97
2022-10-10T15:00:44.958Z,100232.59
2022-10-10T15:03:12.204Z,100234.56
2022-10-10T15:05:39.280Z,100237.94
2022-10-10T15:08:06.295Z,100235.28
2022-10-10T15:10:34.513Z,100236.94
2022-10-10T15:13:02.255Z,100234.50
2022-10-10T15:15:28.727Z,100235.59
2022-10-10T15:17:57.093Z,100240.44
2022-10-10T15:20:30.394Z,100238.66
2022-10-10T15:23:02.783Z,100230.31
2022-10-10T15:25:33.637Z,100229.44
2022-10-10T15:28:04.650Z,100231.66
2022-10-10T15:30:31.149Z,100219.44
2022-10-10T15:32:57.494Z,100240.97
2022-10-10T15:35:25.658Z,100238.63
2022-10-10T15:37:52.555Z,100232.88
2022-10-10T15:40:22.455Z,100236.91
2022-10-10T15:42:49.803Z,100236.91
2022-10-10T15:45:37.018Z,100237.50
2022-10-10T15:48:03.543Z,100245.28
2022-10-10T15:50:31.379Z,100241.94
2022-10-10T15:52:57.746Z,100250.03
2022-10-10T15:55:24.153Z,100249.91
2022-10-10T15:57:50.482Z,100251.75
2022-10-10T16:00:21.087Z,100253.66
2022-10-10T16:02:47.409Z,100257.53
2022-10-10T16:05:13.793Z,100263.75
2022-10-10T16:07:47.631Z,100263.00
2022-10-10T16:10:15.796Z,100269.13
2022-10-10T16:12:42.182Z,100273.09
2022-10-10T16:15:09.393Z,100273.03
2022-10-10T16:17:35.758Z,100274.00
2022-10-10T16:20:02.475Z,100274.53
2022-10-10T16:22:28.928Z,100274.75
2022-10-10T16:27:42.684Z,100289.28
2022-10-10T16:30:09.974Z,100297.56
2022-10-10T16:32:41.719Z,100305.84
2022-10-10T16:35:08.803Z,100313.53
2022-10-10T16:37:35.163Z,100314.78
2022-10-10T16:40:01.578Z,100325.22
2022-10-10T16:42:27.968Z,100327.03
2022-10-10T16:44:54.313Z,100332.31
2022-10-10T16:47:20.724Z,100350.66
2022-10-10T16:49:47.185Z,100341.13
2022-10-10T16:52:13.541Z,100342.09
2022-10-10T16:54:39.886Z,100347.78
2022-10-10T16:57:06.259Z,100356.31
2022-10-10T16:59:34.759Z,100355.75
2022-10-10T17:02:01.244Z,100353.78
2022-10-10T17:04:27.680Z,100368.50
2022-10-10T17:06:54.096Z,100382.72
2022-10-10T17:09:20.542Z,100378.63
2022-10-10T17:11:51.061Z,100379.16
2022-10-10T17:14:17.839Z,100379.00
2022-10-10T17:17:10.401Z,100388.03
2022-10-10T17:19:31.228Z,100383.66
2022-10-10T17:21:57.569Z,100389.84
2022-10-10T17:24:23.908Z,100393.13
2022-10-10T17:26:50.298Z,100402.22
2022-10-10T17:29:16.868Z,100402.88
2022-10-10T17:31:43.299Z,100408.16
2022-10-10T17:34:09.657Z,100413.13
2022-10-10T17:36:36.010Z,100415.16
2022-10-10T17:39:03.608Z,100417.41
2022-10-10T17:41:30.223Z,100418.97
2022-10-10T17:43:56.722Z,100429.22
2022-10-10T17:46:41.817Z,100430.16
2022-10-10T17:49:10.379Z,100429.06
2022-10-10T17:51:39.097Z,100432.91
2022-10-10T17:54:06.486Z,100435.59
2022-10-10T17:56:33.407Z,100435.84
2022-10-10T17:59:01.432Z,100439.94
2022-10-10T18:01:30.346Z,100433.28
2022-10-10T18:03:56.937Z,100432.28
2022-10-10T18:06:23.808Z,100438.50
2022-10-10T18:08:51.863Z,100431.88
2022-10-10T18:11:24.597Z,100433.09
2022-10-10T18:13:51.614Z,100423.94
2022-10-10T18:16:22.743Z,100433.25
2022-10-10T18:18:51.746Z,100460.25
2022-10-10T18:21:20.724Z,100467.72
2022-10-10T18:23:48.131Z,100468.41
2022-10-10T18:26:17.322Z,100471.47
2022-10-10T18:28:44.138Z,100494.31
2022-10-10T18:31:14.240Z,100492.16
2022-10-10T18:33:41.612Z,100503.25
2022-10-10T18:36:09.508Z,100498.28
2022-10-10T18:38:35.986Z,100490.84
2022-10-10T18:41:14.529Z,100499.00
2022-10-10T18:43:43.198Z,100500.97
2022-10-10T18:46:12.448Z,100497.84
2022-10-10T18:48:39.472Z,100496.66
2022-10-10T18:51:08.546Z,100506.91
2022-10-10T18:53:37.079Z,100510.31
2022-10-10T18:56:04.331Z,100506.19
2022-10-10T18:58:31.547Z,100511.44
2022-10-10T19:01:00.190Z,100502.72
2022-10-10T19:03:27.660Z,100495.22
2022-10-10T19:05:54.315Z,100495.16
2022-10-10T19:08:21.040Z,100500.66
2022-10-10T19:10:49.103Z,100506.75
2022-10-10T19:13:16.671Z,100513.34
2022-10-10T19:15:43.283Z,100511.59
2022-10-10T19:18:09.799Z,100506.47
2022-10-10T19:20:36.740Z,100517.31
2022-10-10T19:23:03.234Z,100515.59
2022-10-10T19:25:29.874Z,100528.63
2022-10-10T19:27:56.978Z,100528.13
2022-10-10T19:30:23.826Z,100528.72
2022-10-10T19:32:50.417Z,100539.00
2022-10-10T19:35:16.885Z,100545.09
2022-10-10T19:37:43.381Z,100548.72
2022-10-10T19:40:10.225Z,100552.69
2022-10-10T19:42:36.865Z,100549.00
2022-10-10T19:45:03.506Z,100545.47
2022-10-10T19:47:29.855Z,100552.41
2022-10-10T19:49:56.193Z,100548.81
2022-10-10T19:52:22.948Z,100568.22
2022-10-10T19:54:49.618Z,100567.63
2022-10-10T19:57:16.015Z,100573.38
2022-10-10T19:59:42.788Z,100577.56
2022-10-10T20:02:10.822Z,100584.97
2022-10-10T20:04:37.171Z,100596.72
2022-10-10T20:07:03.568Z,100594.19
2022-10-10T20:09:30.121Z,100597.75
2022-10-10T20:11:56.460Z,100602.44
2022-10-10T20:14:22.829Z,100609.19
2022-10-10T20:16:49.301Z,100618.38
2022-10-10T20:19:15.703Z,100618.13
2022-10-10T20:21:42.055Z,100623.94
2022-10-10T20:24:09.802Z,100619.19
2022-10-10T20:26:36.492Z,100622.16
2022-10-10T20:29:04.208Z,100623.00
2022-10-10T20:31:33.284Z,100621.50
2022-10-10T20:34:01.543Z,100632.16
2022-10-10T20:36:30.203Z,100627.63
2022-10-10T20:39:00.472Z,100635.31
2022-10-10T20:41:29.381Z,100633.72
2022-10-10T20:44:00.820Z,100630.34
2022-10-10T20:46:30.614Z,100632.59
2022-10-10T20:48:59.194Z,100638.28
2022-10-10T20:51:27.431Z,100632.84
2022-10-10T20:54:00.299Z,100641.03
2022-10-10T20:56:28.411Z,100653.72
2022-10-10T20:58:55.172Z,100655.66
2022-10-10T21:01:24.776Z,100658.06
2022-10-10T21:03:51.638Z,100646.25
2022-10-10T21:06:20.515Z,100655.25
2022-10-10T21:08:47.083Z,100671.31
2022-10-10T21:11:15.533Z,100673.94
2022-10-10T21:13:44.536Z,100669.09
2022-10-10T21:16:16.845Z,100673.09
2022-10-10T21:18:56.678Z,100664.13
2022-10-10T21:21:25.067Z,100668.19
2022-10-10T21:23:55.833Z,100682.66
2022-10-10T21:26:23.937Z,100687.38
2022-10-10T21:28:50.844Z,100683.84
2022-10-10T21:31:26.950Z,100686.78
2022-10-10T21:33:54.396Z,100698.53
2022-10-10T21:36:21.658Z,100698.28
2022-10-10T21:38:48.307Z,100698.16
2022-10-10T21:41:19.338Z,100702.03
2022-10-10T21:43:48.816Z,100706.56
2022-10-10T21:46:17.804Z,100705.25
2022-10-10T21:48:44.989Z,100705.63
2022-10-10T21:51:11.753Z,100704.66
2022-10-10T21:53:38.201Z,100705.88
2022-10-10T21:56:08.049Z,100710.34
2022-10-10T21:58:37.149Z,100721.00
2022-10-10T22:01:12.052Z,100715.91
2022-10-10T22:03:38.686Z,100716.78
2022-10-10T22:06:08.766Z,100722.25
2022-10-10T22:08:36.160Z,100729.69
2022-10-10T22:11:04.747Z,100734.59
2022-10-10T22:13:31.810Z,100734.13
2022-10-10T22:15:58.331Z,100740.38
2022-10-10T22:18:24.861Z,100737.31
2022-10-10T22:20:51.601Z,100743.53
2022-10-10T22:23:18.480Z,100744.00
2022-10-10T22:25:46.969Z,100756.97
2022-10-10T22:28:14.099Z,100760.97
2022-10-10T22:30:40.899Z,100755.97
2022-10-10T22:33:07.402Z,100758.91
2022-10-10T22:35:34.101Z,100765.69
2022-10-10T22:38:01.553Z,100767.47
2022-10-10T22:40:28.666Z,100767.28
2022-10-10T22:42:55.144Z,100780.13
2022-10-10T22:45:22.040Z,100783.56
2022-10-10T22:47:48.469Z,100782.44
2022-10-10T22:50:14.937Z,100785.41
2022-10-10T22:52:41.801Z,100790.69
2022-10-10T22:55:09.131Z,100794.91
2022-10-10T22:57:35.755Z,100797.47
2022-10-10T23:00:03.091Z,100803.88
2022-10-10T23:02:29.455Z,100803.53
2022-10-10T23:04:55.807Z,100809.31
2022-10-10T23:07:22.229Z,100807.44
2022-10-10T23:09:48.583Z,100806.81
2022-10-10T23:12:14.996Z,100812.16
2022-10-10T23:14:41.498Z,100807.44
2022-10-10T23:17:07.905Z,100810.19
2022-10-10T23:19:34.268Z,100805.63
2022-10-10T23:22:00.692Z,100812.34
2022-10-10T23:24:27.813Z,100815.69
2022-10-10T23:26:54.153Z,100814.78
2022-10-10T23:29:20.477Z,100813.78
2022-10-10T23:31:46.948Z,100813.06
2022-10-10T23:34:13.317Z,100814.22
2022-10-10T23:36:39.701Z,100811.34
2022-10-10T23:39:09.781Z,100817.66
2022-10-10T23:41:36.503Z,100824.47
2022-10-10T23:44:02.923Z,100835.25
2022-10-10T23:46:29.308Z,100830.16
2022-10-10T23:48:55.713Z,100834.28
2022-10-10T23:51:22.144Z,100833.84
2022-10-10T23:53:48.501Z,100844.47
2022-10-10T23:56:14.877Z,100844.16
2022-10-10T23:58:41.288Z,100850.66
